Time;durP1;ratioP1;P1;durP2;ratioP2;P2;SDS_P1;SDS_P2;PMS_P1;PMS_P2;Temp;Humidity;BMP_temperature;BMP_pressure;BME280_temperature;BME280_humidity;BME280_pressure;Samples;Min_cycle;Max_cycle;Signal;HPM_P1;HPM_P2
2021/12/19 00:00:50;;;;;;;24.73;19.07;;;8.20;99.90;;;;;;5008072;28;20675;-78
2021/12/19 00:03:48;;;;;;;24.50;18.23;;;8.20;99.90;;;;;;5010376;28;20216;-78
2021/12/19 00:09:01;;;;;;;27.33;18.93;;;8.10;99.90;;;;;;5005803;28;20215;-78
2021/12/19 00:11:29;;;;;;;24.63;18.83;;;8.10;99.90;;;;;;5005788;28;20216;-78
2021/12/19 00:13:57;;;;;;;25.00;17.50;;;8.10;99.90;;;;;;5005569;28;20195;-78
2021/12/19 00:16:25;;;;;;;25.50;18.97;;;8.20;99.90;;;;;;5008557;28;20205;-78
2021/12/19 00:18:54;;;;;;;24.67;17.40;;;8.20;99.90;;;;;;5003323;28;20211;-78
2021/12/19 00:21:22;;;;;;;26.17;18.17;;;8.30;99.90;;;;;;5004857;28;20247;-78
2021/12/19 00:23:52;;;;;;;26.77;18.60;;;8.30;99.90;;;;;;5004248;28;20208;-78
2021/12/19 00:26:20;;;;;;;27.60;18.50;;;8.10;99.90;;;;;;5006074;28;20195;-78
2021/12/19 00:28:49;;;;;;;29.60;19.63;;;8.10;99.90;;;;;;5008538;28;20266;-78
2021/12/19 00:31:17;;;;;;;29.70;19.77;;;8.00;99.90;;;;;;5002553;28;20694;-78
2021/12/19 00:33:47;;;;;;;27.90;18.87;;;8.00;99.90;;;;;;5004278;28;20666;-78
2021/12/19 00:36:16;;;;;;;26.73;19.17;;;8.00;99.90;;;;;;5008664;28;20195;-78
2021/12/19 00:38:43;;;;;;;23.37;17.40;;;8.00;99.90;;;;;;5009181;28;20200;-78
2021/12/19 00:41:11;;;;;;;25.27;17.23;;;8.00;99.90;;;;;;5014695;28;20203;-78
2021/12/19 00:43:45;;;;;;;25.20;17.17;;;8.10;99.90;;;;;;5012439;28;20212;-79
2021/12/19 00:46:15;;;;;;;22.90;15.73;;;8.10;99.90;;;;;;4995637;28;20199;-78
2021/12/19 00:48:45;;;;;;;16.20;11.87;;;8.20;99.90;;;;;;5008164;28;20204;-79
2021/12/19 00:51:15;;;;;;;15.40;10.57;;;8.10;99.90;;;;;;5011981;28;20195;-78
2021/12/19 00:53:45;;;;;;;12.23;8.73;;;8.10;99.90;;;;;;5006212;28;20200;-78
2021/12/19 00:56:13;;;;;;;10.77;8.67;;;8.10;99.90;;;;;;5003829;28;20196;-78
2021/12/19 00:58:40;;;;;;;13.57;9.20;;;8.10;99.90;;;;;;5005222;28;20196;-78
2021/12/19 01:01:09;;;;;;;12.67;8.90;;;8.20;99.90;;;;;;5002580;28;20206;-78
2021/12/19 01:03:37;;;;;;;13.90;9.50;;;8.30;99.90;;;;;;5008631;28;20204;-78
2021/12/19 01:06:06;;;;;;;11.03;8.50;;;8.20;99.90;;;;;;5016980;28;20208;-78
2021/12/19 01:08:44;;;;;;;11.13;8.17;;;8.20;99.90;;;;;;5006738;28;20203;-78
2021/12/19 01:11:12;;;;;;;13.37;9.60;;;8.10;99.90;;;;;;5002885;28;20204;-78
2021/12/19 01:13:39;;;;;;;13.37;9.37;;;8.10;99.90;;;;;;5005279;28;20192;-78
2021/12/19 01:16:07;;;;;;;15.03;11.63;;;8.00;99.90;;;;;;5005185;28;20207;-78
2021/12/19 01:18:35;;;;;;;18.13;11.37;;;8.00;99.90;;;;;;5004612;28;20210;-78
2021/12/19 01:21:02;;;;;;;17.97;12.30;;;8.00;99.90;;;;;;4996960;28;20214;-78
2021/12/19 01:23:33;;;;;;;16.87;11.33;;;8.00;99.90;;;;;;5006580;23;20201;-75
2021/12/19 01:26:09;;;;;;;17.07;12.97;;;8.00;99.90;;;;;;4980254;28;20204;-72
2021/12/19 01:28:38;;;;;;;16.87;11.67;;;7.90;99.90;;;;;;4988318;28;20200;-72
2021/12/19 01:31:06;;;;;;;16.77;12.13;;;7.90;99.90;;;;;;4988265;28;20208;-70
2021/12/19 01:33:33;;;;;;;17.73;12.73;;;7.90;99.90;;;;;;4995268;28;20223;-70
2021/12/19 01:36:00;;;;;;;18.70;13.57;;;7.90;99.90;;;;;;4996622;28;20200;-70
2021/12/19 01:38:30;;;;;;;24.63;16.33;;;7.90;99.90;;;;;;4984406;28;20204;-70
2021/12/19 01:40:58;;;;;;;24.80;17.13;;;7.80;99.90;;;;;;4992852;28;20211;-70
2021/12/19 01:43:27;;;;;;;25.23;17.43;;;7.70;99.90;;;;;;5000108;28;20678;-70
2021/12/19 01:45:55;;;;;;;27.57;18.07;;;7.80;99.90;;;;;;4992245;28;20227;-70
2021/12/19 01:48:23;;;;;;;28.93;18.10;;;7.90;99.90;;;;;;4992154;28;20200;-69
2021/12/19 01:50:51;;;;;;;28.83;18.73;;;7.90;99.90;;;;;;4989604;28;20563;-70
2021/12/19 01:53:20;;;;;;;30.77;19.23;;;7.80;99.90;;;;;;4991569;28;20200;-69
2021/12/19 01:55:49;;;;;;;27.87;20.37;;;7.60;99.90;;;;;;4984286;28;20220;-70
2021/12/19 01:58:29;;;;;;;27.87;18.93;;;7.70;99.90;;;;;;4987968;28;20204;-70
2021/12/19 02:00:58;;;;;;;28.50;19.57;;;7.70;99.90;;;;;;5007199;28;20193;-70
2021/12/19 02:03:27;;;;;;;28.57;18.93;;;7.80;99.90;;;;;;4994203;28;20219;-70
2021/12/19 02:05:54;;;;;;;26.40;16.57;;;7.80;99.90;;;;;;5003447;28;20563;-70
2021/12/19 02:08:22;;;;;;;23.60;16.23;;;7.80;99.90;;;;;;4990349;28;20208;-70
2021/12/19 02:10:49;;;;;;;25.30;16.83;;;7.80;99.90;;;;;;4992595;28;20208;-70
2021/12/19 02:13:17;;;;;;;24.20;16.97;;;7.80;99.90;;;;;;4993875;28;20207;-70
2021/12/19 02:15:47;;;;;;;23.63;16.30;;;7.80;99.90;;;;;;4981083;28;20197;-71
2021/12/19 02:18:17;;;;;;;23.23;16.97;;;7.80;99.90;;;;;;4990021;28;20196;-70
2021/12/19 02:20:50;;;;;;;26.07;17.37;;;7.90;99.90;;;;;;4990444;28;20204;-70
2021/12/19 02:23:29;;;;;;;24.60;18.10;;;7.90;99.90;;;;;;4985345;28;20219;-71
2021/12/19 02:25:57;;;;;;;27.57;19.67;;;7.80;99.90;;;;;;4991090;28;20596;-70
2021/12/19 02:28:25;;;;;;;25.57;19.13;;;7.70;99.90;;;;;;4998070;28;20213;-77
2021/12/19 02:30:53;;;;;;;28.47;18.00;;;7.80;99.90;;;;;;4991046;28;20233;-70
2021/12/19 02:33:23;;;;;;;23.87;16.57;;;7.80;99.90;;;;;;4985787;28;20200;-71
2021/12/19 02:35:59;;;;;;;18.97;13.43;;;7.80;99.90;;;;;;4992493;28;20200;-70
2021/12/19 02:49:28;;;;;;;10.40;8.27;;;7.60;99.90;;;;;;4984556;28;20547;-71
2021/12/19 02:51:57;;;;;;;9.83;7.07;;;7.60;99.90;;;;;;4980328;28;20208;-70
2021/12/19 02:54:28;;;;;;;7.63;6.23;;;7.60;99.90;;;;;;4990852;28;20701;-70
2021/12/19 02:56:56;;;;;;;5.87;5.00;;;7.60;99.90;;;;;;4981901;28;20201;-70
2021/12/19 02:59:24;;;;;;;7.60;5.27;;;7.40;99.90;;;;;;4981800;28;20201;-70
2021/12/19 03:01:51;;;;;;;6.23;4.70;;;7.50;99.90;;;;;;4994611;28;20207;-70
2021/12/19 03:04:19;;;;;;;5.63;5.03;;;7.50;99.90;;;;;;5003447;28;20224;-71
2021/12/19 03:06:48;;;;;;;5.80;4.40;;;7.50;99.90;;;;;;4992488;28;20583;-70
2021/12/19 03:09:32;;;;;;;6.03;4.73;;;7.50;99.90;;;;;;4987808;28;20207;-70
2021/12/19 03:12:13;;;;;;;5.60;4.37;;;7.60;99.90;;;;;;4988053;28;20196;-70
2021/12/19 03:20:13;;;;;;;7.10;4.30;;;7.60;99.90;;;;;;4998788;28;20193;-70
2021/12/19 03:22:41;;;;;;;5.43;4.43;;;7.50;99.90;;;;;;4990051;28;20192;-71
2021/12/19 03:25:10;;;;;;;6.60;4.60;;;7.50;99.90;;;;;;4989769;28;20243;-70
2021/12/19 03:27:38;;;;;;;7.40;4.50;;;7.50;99.90;;;;;;4999810;28;20661;-70
2021/12/19 03:30:13;;;;;;;5.60;4.13;;;7.60;99.90;;;;;;4995322;28;20208;-70
2021/12/19 03:32:41;;;;;;;6.03;4.30;;;7.50;99.90;;;;;;5008746;28;20211;-71
2021/12/19 03:35:09;;;;;;;5.07;3.67;;;7.50;99.90;;;;;;4992209;28;20220;-70
2021/12/19 03:37:37;;;;;;;7.27;4.43;;;7.50;99.90;;;;;;4995929;28;20256;-70
2021/12/19 03:40:09;;;;;;;5.40;4.40;;;7.50;99.90;;;;;;5004287;28;20202;-71
2021/12/19 03:42:40;;;;;;;6.23;3.63;;;7.50;99.90;;;;;;4989750;28;20211;-70
2021/12/19 03:45:10;;;;;;;5.47;3.60;;;7.50;99.90;;;;;;4987172;28;20219;-72
2021/12/19 03:47:46;;;;;;;5.83;3.63;;;7.50;99.90;;;;;;4993617;28;20192;-70
2021/12/19 03:50:18;;;;;;;5.70;4.13;;;7.50;99.90;;;;;;4993998;28;20192;-70
2021/12/19 03:52:45;;;;;;;5.87;4.03;;;7.50;99.90;;;;;;4997005;28;20203;-70
2021/12/19 03:55:13;;;;;;;6.50;4.57;;;7.50;99.90;;;;;;4983862;28;20216;-70
2021/12/19 03:58:17;;;;;;;6.33;3.87;;;7.50;99.90;;;;;;4990795;28;20400;-71
2021/12/19 04:00:45;;;;;;;5.83;4.33;;;7.60;99.90;;;;;;4994235;28;20204;-70
2021/12/19 04:03:18;;;;;;;5.30;4.00;;;7.70;99.90;;;;;;4984261;28;20223;-70
2021/12/19 04:05:46;;;;;;;7.43;4.37;;;7.70;99.90;;;;;;4997441;28;20197;-69
2021/12/19 04:08:14;;;;;;;6.23;4.50;;;7.70;99.90;;;;;;4994849;28;20196;-70
2021/12/19 04:10:41;;;;;;;6.00;4.53;;;7.80;99.90;;;;;;4997479;28;20216;-70
2021/12/19 04:13:09;;;;;;;7.13;4.40;;;7.80;99.90;;;;;;4993993;28;20212;-70
2021/12/19 04:15:38;;;;;;;6.20;4.30;;;7.70;99.90;;;;;;4990314;28;20216;-71
2021/12/19 04:18:05;;;;;;;5.73;4.30;;;7.80;99.90;;;;;;4999093;28;20189;-70
2021/12/19 04:20:33;;;;;;;6.70;4.23;;;7.90;99.90;;;;;;4993662;28;20205;-71
2021/12/19 04:23:00;;;;;;;6.57;4.37;;;7.80;99.90;;;;;;4988141;28;20238;-71
2021/12/19 04:25:28;;;;;;;6.73;4.37;;;7.80;99.90;;;;;;5005167;28;20243;-70
2021/12/19 04:27:55;;;;;;;5.83;4.63;;;7.70;99.90;;;;;;4996009;28;20195;-70
2021/12/19 04:30:25;;;;;;;6.80;5.27;;;7.70;99.90;;;;;;5003183;28;20213;-70
2021/12/19 04:33:01;;;;;;;7.87;5.37;;;7.80;99.90;;;;;;4982554;28;20688;-77
2021/12/19 04:35:31;;;;;;;7.43;5.07;;;7.80;99.90;;;;;;4995958;28;20219;-70
2021/12/19 04:38:39;;;;;;;6.13;4.73;;;7.90;99.90;;;;;;4985478;28;20230;-72
2021/12/19 04:41:36;;;;;;;5.60;4.47;;;7.90;99.90;;;;;;4992654;28;20211;-71
2021/12/19 04:55:22;;;;;;;7.13;5.30;;;8.00;99.90;;;;;;4990196;28;20208;-71
2021/12/19 04:57:56;;;;;;;8.57;5.53;;;7.80;99.90;;;;;;5001524;28;20203;-71
2021/12/19 05:00:33;;;;;;;7.90;5.70;;;7.90;99.90;;;;;;4995612;28;20216;-71
2021/12/19 05:03:05;;;;;;;8.67;5.87;;;7.70;99.90;;;;;;4993012;28;20202;-70
2021/12/19 05:05:53;;;;;;;9.00;6.03;;;7.70;99.90;;;;;;4990281;28;20221;-71
2021/12/19 05:16:45;;;;;;;10.37;6.43;;;7.80;99.90;;;;;;4954243;28;20207;-69
2021/12/19 05:19:23;;;;;;;10.90;6.97;;;7.80;99.90;;;;;;4989681;28;20205;-70
2021/12/19 05:21:56;;;;;;;10.53;6.90;;;7.80;99.90;;;;;;4992478;28;20208;-70
2021/12/19 05:27:05;;;;;;;11.27;6.90;;;7.50;99.90;;;;;;4991691;28;20227;-70
2021/12/19 05:29:33;;;;;;;9.50;6.20;;;7.60;99.90;;;;;;4984880;28;20620;-71
2021/12/19 05:32:00;;;;;;;8.80;5.60;;;7.50;99.90;;;;;;4992210;28;20200;-71
2021/12/19 05:34:29;;;;;;;9.80;6.30;;;7.50;99.90;;;;;;4990699;28;20717;-70
2021/12/19 05:45:14;;;;;;;7.80;4.83;;;7.40;99.90;;;;;;4994273;28;20216;-70
2021/12/19 05:47:43;;;;;;;8.47;5.47;;;7.30;99.90;;;;;;4993290;28;20650;-71
2021/12/19 05:50:11;;;;;;;6.43;4.33;;;7.30;99.90;;;;;;4990920;28;20208;-69
2021/12/19 05:52:41;;;;;;;6.50;4.30;;;7.20;99.90;;;;;;4986482;28;20209;-69
2021/12/19 05:55:09;;;;;;;6.00;3.87;;;7.20;99.90;;;;;;4990400;28;20213;-70
2021/12/19 05:57:37;;;;;;;4.90;3.00;;;7.10;99.90;;;;;;4985993;28;20201;-71
2021/12/19 06:00:07;;;;;;;5.97;3.80;;;7.80;99.90;;;;;;4989208;28;20209;-71
2021/12/19 06:02:36;;;;;;;4.87;3.23;;;8.60;99.90;;;;;;4991609;28;20208;-72
2021/12/19 06:05:04;;;;;;;4.23;3.20;;;9.10;99.90;;;;;;4989102;28;20221;-70
2021/12/19 06:07:31;;;;;;;5.50;2.93;;;8.30;99.90;;;;;;4984984;28;20527;-72
2021/12/19 06:10:00;;;;;;;5.23;3.40;;;7.70;99.90;;;;;;4985672;28;20206;-70
2021/12/19 06:12:27;;;;;;;3.50;2.93;;;7.50;99.90;;;;;;4988876;28;20192;-71
2021/12/19 06:14:55;;;;;;;4.33;2.93;;;7.40;99.90;;;;;;4986166;28;20235;-70
2021/12/19 06:17:22;;;;;;;4.87;3.10;;;7.20;99.90;;;;;;4998658;28;20199;-71
2021/12/19 06:20:03;;;;;;;5.03;3.97;;;7.20;99.90;;;;;;4990642;28;20204;-73
2021/12/19 06:23:23;;;;;;;4.93;3.50;;;7.20;99.90;;;;;;4989988;28;20211;-70
2021/12/19 06:25:53;;;;;;;4.53;3.87;;;7.10;99.90;;;;;;4989171;28;20227;-71
2021/12/19 06:28:43;;;;;;;4.50;3.40;;;7.10;99.90;;;;;;5006778;28;20196;-71
2021/12/19 06:31:10;;;;;;;5.00;3.60;;;7.10;99.90;;;;;;4992901;28;20292;-70
2021/12/19 06:33:39;;;;;;;4.27;3.20;;;7.20;99.90;;;;;;4989801;28;20231;-70
2021/12/19 06:36:09;;;;;;;6.03;3.80;;;7.30;99.90;;;;;;4989386;28;20647;-72
2021/12/19 06:38:38;;;;;;;4.20;3.63;;;7.30;99.90;;;;;;4983586;28;20681;-72
2021/12/19 06:41:24;;;;;;;5.67;2.80;;;7.40;99.90;;;;;;4987681;28;20212;-70
2021/12/19 06:43:51;;;;;;;5.33;3.30;;;7.40;99.90;;;;;;4978736;28;20690;-69
2021/12/19 06:46:31;;;;;;;4.43;3.10;;;7.30;99.90;;;;;;4989251;28;20701;-70
2021/12/19 06:49:02;;;;;;;4.47;3.00;;;7.30;99.90;;;;;;4987881;28;20204;-72
2021/12/19 06:51:30;;;;;;;5.50;3.40;;;7.30;99.90;;;;;;4983954;28;20217;-71
2021/12/19 06:53:58;;;;;;;5.13;3.50;;;7.30;99.90;;;;;;5011712;28;20654;-69
2021/12/19 06:56:27;;;;;;;6.93;4.37;;;7.50;99.90;;;;;;4990943;28;20212;-70
2021/12/19 06:58:55;;;;;;;5.07;3.87;;;7.40;99.90;;;;;;4989246;28;20267;-70
2021/12/19 07:01:22;;;;;;;6.37;4.30;;;7.30;99.90;;;;;;4986122;28;20208;-71
2021/12/19 07:03:49;;;;;;;5.10;3.50;;;7.30;99.90;;;;;;4979600;28;20219;-71
2021/12/19 07:06:18;;;;;;;5.67;3.87;;;7.30;99.90;;;;;;4978433;28;20217;-71
2021/12/19 07:08:45;;;;;;;4.00;3.27;;;7.40;99.90;;;;;;4981285;28;20212;-70
2021/12/19 07:11:13;;;;;;;4.63;3.47;;;7.30;99.90;;;;;;4986497;28;20203;-70
2021/12/19 07:13:46;;;;;;;4.40;3.33;;;7.30;99.90;;;;;;4995805;28;20609;-70
2021/12/19 07:16:16;;;;;;;5.27;3.60;;;7.30;99.90;;;;;;4993174;28;20196;-72
2021/12/19 07:18:44;;;;;;;4.67;3.40;;;7.20;99.90;;;;;;4986694;28;20547;-71
2021/12/19 07:21:11;;;;;;;5.83;3.20;;;7.20;99.90;;;;;;4989123;28;20196;-71
2021/12/19 07:23:51;;;;;;;4.20;3.03;;;7.30;99.90;;;;;;4990019;28;20229;-70
2021/12/19 07:26:18;;;;;;;5.50;3.10;;;7.20;99.90;;;;;;4999504;28;20227;-71
2021/12/19 07:28:49;;;;;;;3.20;2.83;;;7.20;99.90;;;;;;4985456;28;20208;-72
2021/12/19 07:31:17;;;;;;;3.40;2.60;;;7.30;99.90;;;;;;4992992;28;20211;-70
2021/12/19 07:33:45;;;;;;;4.40;2.83;;;7.30;99.90;;;;;;4991554;28;20220;-74
2021/12/19 07:36:14;;;;;;;4.93;3.10;;;7.40;99.90;;;;;;4988944;28;20197;-75
2021/12/19 07:38:52;;;;;;;20.47;13.00;;;7.40;99.90;;;;;;4994555;28;20200;-72
2021/12/19 07:41:20;;;;;;;5.47;3.60;;;8.10;99.90;;;;;;4990628;28;20209;-73
2021/12/19 07:43:48;;;;;;;6.70;3.70;;;7.90;99.90;;;;;;4992124;28;20224;-75
2021/12/19 07:46:16;;;;;;;5.33;3.47;;;7.70;99.90;;;;;;4986299;28;20219;-72
2021/12/19 07:48:43;;;;;;;6.50;4.97;;;7.40;99.90;;;;;;4984172;28;20200;-73
2021/12/19 07:51:11;;;;;;;5.63;4.40;;;7.40;99.90;;;;;;4988718;28;20204;-73
2021/12/19 07:53:38;;;;;;;6.43;4.90;;;7.30;99.90;;;;;;4989644;28;20239;-76
2021/12/19 07:56:06;;;;;;;6.50;4.87;;;7.30;99.90;;;;;;4988353;28;20211;-73
2021/12/19 07:58:33;;;;;;;7.53;6.10;;;7.30;99.90;;;;;;4983631;28;20205;-72
2021/12/19 08:01:02;;;;;;;7.33;5.77;;;7.20;99.90;;;;;;5002357;28;20200;-72
2021/12/19 08:03:30;;;;;;;10.07;6.23;;;7.30;99.90;;;;;;4991121;28;20197;-72
2021/12/19 08:05:57;;;;;;;8.00;6.20;;;7.40;99.90;;;;;;4996375;28;20579;-72
2021/12/19 08:08:28;;;;;;;8.10;6.10;;;7.40;99.90;;;;;;5007138;28;20685;-73
2021/12/19 08:13:41;;;;;;;7.07;5.13;;;7.50;99.90;;;;;;4977022;28;20217;-72
2021/12/19 08:16:17;;;;;;;11.53;6.23;;;7.40;99.90;;;;;;5007643;28;20206;-72
2021/12/19 08:18:45;;;;;;;7.47;5.37;;;7.40;99.90;;;;;;4974973;28;20243;-74
2021/12/19 08:21:13;;;;;;;6.23;5.33;;;7.40;99.90;;;;;;5015461;28;20211;-72
2021/12/19 08:23:40;;;;;;;6.37;4.77;;;7.30;99.90;;;;;;5013613;28;20239;-72
2021/12/19 08:26:07;;;;;;;6.87;5.83;;;7.30;99.90;;;;;;5013760;28;20234;-73
2021/12/19 08:28:35;;;;;;;7.67;5.80;;;7.30;99.90;;;;;;5012321;28;20195;-72
2021/12/19 08:31:02;;;;;;;7.27;5.17;;;7.30;99.90;;;;;;5006307;28;20200;-72
2021/12/19 08:33:31;;;;;;;7.40;5.23;;;7.30;99.90;;;;;;5000301;28;20200;-73
2021/12/19 08:35:59;;;;;;;6.70;5.33;;;7.30;99.90;;;;;;4994283;28;20203;-72
2021/12/19 08:38:26;;;;;;;6.17;5.17;;;7.40;99.90;;;;;;5003619;28;20199;-73
2021/12/19 08:40:55;;;;;;;8.60;6.67;;;7.40;99.90;;;;;;5011377;28;20565;-73
2021/12/19 08:43:23;;;;;;;8.67;6.97;;;7.40;99.90;;;;;;4996137;28;20199;-72
2021/12/19 08:45:50;;;;;;;10.60;7.30;;;7.50;99.90;;;;;;4996327;28;20217;-73
2021/12/19 08:48:57;;;;;;;8.77;6.93;;;7.40;99.90;;;;;;4994856;28;20261;-72
2021/12/19 08:51:28;;;;;;;10.10;7.73;;;7.40;99.90;;;;;;4986337;28;20560;-72
2021/12/19 08:53:55;;;;;;;12.03;7.73;;;7.50;99.90;;;;;;5000010;28;20211;-72
2021/12/19 08:56:22;;;;;;;9.10;6.87;;;7.50;99.90;;;;;;5003460;28;20211;-72
2021/12/19 08:58:50;;;;;;;10.03;7.33;;;7.40;99.90;;;;;;5006130;28;20249;-72
2021/12/19 09:01:17;;;;;;;9.77;6.77;;;7.50;99.90;;;;;;5013114;28;20199;-72
2021/12/19 09:03:44;;;;;;;9.10;7.33;;;7.50;99.90;;;;;;5008355;28;20228;-73
2021/12/19 09:06:12;;;;;;;9.47;7.37;;;7.70;99.90;;;;;;5008448;28;20571;-72
2021/12/19 09:08:41;;;;;;;8.97;6.23;;;7.70;99.90;;;;;;5013036;28;20199;-72
2021/12/19 09:11:08;;;;;;;11.43;7.63;;;7.60;99.90;;;;;;4994413;28;20211;-72
2021/12/19 09:13:36;;;;;;;11.70;8.73;;;7.50;99.90;;;;;;5001090;28;20192;-71
2021/12/19 09:16:04;;;;;;;14.03;9.47;;;7.50;99.90;;;;;;5012227;28;20187;-72
2021/12/19 09:18:31;;;;;;;14.37;10.60;;;7.50;99.90;;;;;;5012440;28;20199;-73
2021/12/19 09:20:58;;;;;;;13.37;9.80;;;7.40;99.90;;;;;;5011641;28;20192;-72
2021/12/19 09:23:27;;;;;;;12.43;9.30;;;7.30;99.90;;;;;;5000412;28;20204;-73
2021/12/19 09:25:55;;;;;;;13.20;8.73;;;7.30;99.90;;;;;;4997661;28;20243;-72
2021/12/19 09:28:23;;;;;;;12.53;8.93;;;7.30;99.90;;;;;;4993268;28;20204;-73
2021/12/19 09:30:51;;;;;;;12.77;9.43;;;7.40;99.90;;;;;;4992777;28;20200;-72
2021/12/19 09:33:18;;;;;;;12.37;9.13;;;7.40;99.90;;;;;;4992791;28;20201;-72
2021/12/19 09:35:46;;;;;;;14.30;10.40;;;7.40;99.90;;;;;;4998192;28;20203;-72
2021/12/19 09:38:15;;;;;;;13.43;9.37;;;7.50;99.90;;;;;;5002441;28;20207;-73
2021/12/19 09:40:43;;;;;;;12.47;9.33;;;7.50;99.90;;;;;;4992423;28;20203;-72
2021/12/19 09:43:41;;;;;;;13.93;9.10;;;7.50;99.90;;;;;;4992894;28;20208;-72
2021/12/19 09:47:05;;;;;;;10.83;7.37;;;7.60;99.90;;;;;;5001051;28;20278;-72
2021/12/19 09:49:34;;;;;;;6.70;4.93;;;7.50;99.90;;;;;;4986869;28;20223;-72
2021/12/19 09:52:05;;;;;;;4.90;3.60;;;7.40;99.90;;;;;;5000193;28;20202;-71
2021/12/19 09:54:33;;;;;;;3.33;2.63;;;7.40;99.90;;;;;;5006692;28;20246;-80
2021/12/19 09:57:00;;;;;;;2.47;2.07;;;7.40;99.90;;;;;;5006502;28;20201;-73
2021/12/19 09:59:29;;;;;;;2.23;2.00;;;7.30;99.90;;;;;;4987877;28;20216;-72
2021/12/19 10:01:56;;;;;;;4.23;1.90;;;7.40;99.90;;;;;;4984247;28;20207;-73
2021/12/19 10:04:47;;;;;;;2.47;1.57;;;7.40;99.90;;;;;;4986964;28;20228;-72
2021/12/19 10:07:18;;;;;;;1.40;1.30;;;7.40;99.90;;;;;;4972965;28;20232;-72
2021/12/19 10:10:00;;;;;;;1.50;1.17;;;7.40;99.90;;;;;;5001578;28;20196;-72
2021/12/19 10:12:48;;;;;;;1.67;1.40;;;7.60;99.90;;;;;;4977096;28;20197;-73
2021/12/19 10:15:19;;;;;;;2.33;1.50;;;7.60;99.90;;;;;;4998742;28;20227;-72
2021/12/19 10:17:48;;;;;;;2.10;1.10;;;7.50;99.90;;;;;;4990247;28;20669;-72
2021/12/19 10:20:19;;;;;;;1.43;0.90;;;7.50;99.90;;;;;;4995103;28;20204;-73
2021/12/19 10:22:48;;;;;;;1.37;0.80;;;7.40;99.90;;;;;;4997280;28;20219;-73
2021/12/19 10:25:20;;;;;;;2.20;0.80;;;7.40;99.90;;;;;;4989749;28;20220;-72
2021/12/19 10:27:54;;;;;;;3.20;1.83;;;7.40;99.90;;;;;;4999094;28;20243;-72
2021/12/19 10:30:30;;;;;;;0.53;0.50;;;8.10;99.90;;;;;;4990210;28;20196;-73
2021/12/19 10:33:11;;;;;;;1.53;0.90;;;7.60;99.90;;;;;;4992974;28;20211;-72
2021/12/19 10:35:41;;;;;;;1.43;1.13;;;7.60;99.90;;;;;;4987654;28;20220;-71
2021/12/19 10:38:15;;;;;;;1.10;0.70;;;7.60;99.90;;;;;;4989894;28;20200;-72
2021/12/19 10:40:46;;;;;;;1.63;0.60;;;7.50;99.90;;;;;;4981632;28;20210;-72
2021/12/19 10:43:16;;;;;;;1.00;0.90;;;7.50;99.90;;;;;;4989750;28;20197;-73
2021/12/19 10:45:47;;;;;;;1.20;1.10;;;7.60;99.90;;;;;;5012352;28;20226;-72
2021/12/19 10:48:28;;;;;;;1.80;1.53;;;7.60;99.90;;;;;;5019853;28;20722;-71
2021/12/19 10:51:11;;;;;;;0.87;0.80;;;7.50;99.90;;;;;;5018082;28;20703;-72
2021/12/19 10:53:43;;;;;;;1.67;1.20;;;7.60;99.90;;;;;;5014878;28;20730;-72
2021/12/19 10:56:15;;;;;;;0.97;0.73;;;7.60;99.90;;;;;;5033992;28;20652;-72
2021/12/19 10:58:45;;;;;;;0.97;0.80;;;7.70;99.90;;;;;;5022453;28;20194;-75
2021/12/19 11:01:20;;;;;;;0.60;0.60;;;7.70;99.90;;;;;;5019602;28;20201;-72
2021/12/19 11:03:54;;;;;;;1.63;0.70;;;7.70;99.90;;;;;;5030227;28;20218;-73
2021/12/19 11:06:28;;;;;;;1.70;0.80;;;7.70;99.90;;;;;;5021455;28;20195;-72
2021/12/19 11:08:58;;;;;;;1.07;0.63;;;7.70;99.90;;;;;;5011072;28;20210;-72
2021/12/19 11:11:34;;;;;;;1.23;0.67;;;7.80;99.90;;;;;;5035553;28;20210;-73
2021/12/19 11:14:25;;;;;;;0.80;0.80;;;7.70;99.90;;;;;;5011435;28;20218;-72
2021/12/19 11:17:00;;;;;;;1.00;0.80;;;7.80;99.90;;;;;;5028216;28;20191;-72
2021/12/19 11:19:29;;;;;;;1.40;0.97;;;7.90;99.90;;;;;;5027736;28;20205;-73
2021/12/19 11:22:01;;;;;;;1.30;0.60;;;7.80;99.90;;;;;;5035441;28;20645;-72
2021/12/19 11:24:28;;;;;;;0.93;0.77;;;7.80;99.90;;;;;;5011847;28;20223;-72
2021/12/19 11:27:08;;;;;;;0.77;0.73;;;7.80;99.90;;;;;;5005073;28;20219;-72
2021/12/19 11:29:39;;;;;;;1.13;1.00;;;7.70;99.90;;;;;;5033288;28;20194;-72
2021/12/19 11:32:20;;;;;;;1.13;1.00;;;7.70;99.90;;;;;;5008772;28;20568;-72
2021/12/19 11:34:58;;;;;;;2.03;1.60;;;7.80;99.90;;;;;;5013203;28;20234;-72
2021/12/19 11:37:50;;;;;;;1.53;1.40;;;7.80;99.90;;;;;;5014040;28;20209;-72
2021/12/19 11:40:20;;;;;;;2.03;1.73;;;7.70;99.90;;;;;;5012118;28;20203;-72
2021/12/19 11:42:50;;;;;;;4.33;1.73;;;7.60;99.90;;;;;;5019084;28;20676;-72
2021/12/19 11:45:31;;;;;;;2.30;1.50;;;7.60;99.90;;;;;;5021419;28;20233;-73
2021/12/19 11:52:30;;;;;;;2.50;2.07;;;7.60;99.90;;;;;;5039276;28;20174;-73
2021/12/19 11:55:20;;;;;;;2.17;1.70;;;7.60;99.90;;;;;;5008427;28;20233;-74
2021/12/19 11:58:24;;;;;;;2.40;1.93;;;7.70;99.90;;;;;;5027396;28;20192;-73
2021/12/19 12:01:01;;;;;;;5.23;2.10;;;7.70;99.90;;;;;;5017706;28;20199;-73
2021/12/19 12:03:50;;;;;;;3.00;2.30;;;7.60;99.90;;;;;;5025185;28;20187;-74
2021/12/19 12:06:35;;;;;;;2.80;2.07;;;7.60;99.90;;;;;;5022629;28;20198;-73
2021/12/19 12:09:33;;;;;;;1.97;1.47;;;7.60;99.90;;;;;;5010523;28;20219;-74
2021/12/19 12:12:20;;;;;;;2.17;1.37;;;7.50;99.90;;;;;;5020652;28;20191;-74
2021/12/19 12:14:58;;;;;;;1.40;1.10;;;7.60;99.90;;;;;;5033332;28;20222;-74
2021/12/19 12:17:51;;;;;;;1.73;1.30;;;7.60;99.90;;;;;;5030519;28;20214;-74
2021/12/19 12:20:32;;;;;;;1.77;1.23;;;7.60;99.90;;;;;;5026101;28;20550;-74
2021/12/19 12:23:08;;;;;;;1.27;1.13;;;7.60;99.90;;;;;;5018856;28;20202;-74
2021/12/19 12:25:42;;;;;;;1.73;1.10;;;7.60;99.90;;;;;;5013657;28;20225;-74
2021/12/19 12:28:10;;;;;;;2.80;1.40;;;7.70;99.90;;;;;;5036484;28;20207;-74
2021/12/19 12:30:42;;;;;;;2.17;1.17;;;7.60;99.90;;;;;;5027504;28;20208;-74
2021/12/19 12:33:14;;;;;;;2.50;1.20;;;7.50;99.90;;;;;;5010066;28;20637;-74
2021/12/19 12:35:45;;;;;;;1.20;1.10;;;7.60;99.90;;;;;;5008268;28;20246;-74
2021/12/19 12:38:13;;;;;;;1.83;1.43;;;7.60;99.90;;;;;;5016981;28;20187;-73
2021/12/19 12:40:48;;;;;;;3.40;1.70;;;7.70;99.90;;;;;;5019321;28;20565;-74
2021/12/19 12:43:18;;;;;;;2.90;1.80;;;7.70;99.90;;;;;;5043022;28;20197;-74
2021/12/19 12:46:01;;;;;;;3.73;2.10;;;7.70;99.90;;;;;;5018045;28;20204;-73
2021/12/19 12:48:51;;;;;;;2.97;2.07;;;7.70;99.90;;;;;;5032516;28;20211;-74
2021/12/19 12:51:24;;;;;;;4.00;2.30;;;7.60;99.90;;;;;;5010424;28;20631;-74
2021/12/19 12:53:56;;;;;;;3.97;2.23;;;7.60;99.90;;;;;;5021457;28;20685;-74
2021/12/19 12:56:57;;;;;;;4.17;2.27;;;7.60;99.90;;;;;;5015908;28;20207;-74
2021/12/19 13:00:08;;;;;;;3.17;2.00;;;7.60;99.90;;;;;;5026936;28;20194;-73
2021/12/19 13:02:43;;;;;;;3.73;2.70;;;7.70;99.90;;;;;;5023487;28;20210;-74
2021/12/19 13:05:12;;;;;;;3.80;2.87;;;7.70;99.90;;;;;;5012278;28;20218;-73
2021/12/19 13:07:58;;;;;;;4.10;3.20;;;7.60;99.90;;;;;;5040734;28;20206;-73
2021/12/19 13:10:31;;;;;;;4.03;2.70;;;7.70;99.90;;;;;;5002232;28;20538;-74
2021/12/19 13:13:09;;;;;;;4.83;3.13;;;7.60;99.90;;;;;;5033592;28;20213;-73
2021/12/19 13:15:37;;;;;;;4.30;2.87;;;7.60;99.90;;;;;;5030558;28;20211;-74
2021/12/19 13:18:13;;;;;;;4.07;2.70;;;7.60;99.90;;;;;;5034139;28;20198;-74
2021/12/19 13:20:40;;;;;;;4.17;3.20;;;7.60;99.90;;;;;;5008555;28;20195;-74
2021/12/19 13:23:08;;;;;;;5.00;2.97;;;7.60;99.90;;;;;;4998915;28;20199;-74
2021/12/19 13:25:39;;;;;;;7.90;3.90;;;7.60;99.90;;;;;;5015941;28;20624;-74
2021/12/19 13:28:20;;;;;;;5.00;2.90;;;7.50;99.90;;;;;;5015417;28;20209;-74
2021/12/19 13:31:05;;;;;;;5.83;3.57;;;7.60;99.90;;;;;;5017666;28;20195;-73
2021/12/19 13:33:40;;;;;;;3.80;3.10;;;7.60;99.90;;;;;;5012864;28;20213;-74
2021/12/19 13:36:32;;;;;;;4.30;3.20;;;7.50;99.90;;;;;;5007141;28;20194;-74
2021/12/19 13:38:59;;;;;;;4.87;2.90;;;7.40;99.90;;;;;;5039605;28;20198;-74
2021/12/19 13:41:27;;;;;;;5.97;4.00;;;7.50;99.90;;;;;;5024991;28;20202;-74
2021/12/19 13:43:57;;;;;;;3.97;3.30;;;7.50;99.90;;;;;;5034741;28;20222;-73
2021/12/19 13:46:28;;;;;;;5.70;2.87;;;7.50;99.90;;;;;;5027518;28;21192;-74
2021/12/19 13:48:56;;;;;;;4.90;3.03;;;7.50;99.90;;;;;;5037165;28;20206;-74
2021/12/19 13:51:25;;;;;;;3.77;2.73;;;7.50;99.90;;;;;;5026338;28;20214;-73
2021/12/19 13:54:05;;;;;;;4.40;2.70;;;7.50;99.90;;;;;;5029242;28;20215;-73
2021/12/19 13:56:36;;;;;;;4.40;2.97;;;7.50;99.90;;;;;;5011755;28;20206;-74
2021/12/19 13:59:16;;;;;;;4.40;2.80;;;7.60;99.90;;;;;;5032772;28;20564;-74
2021/12/19 14:01:43;;;;;;;5.60;2.50;;;7.50;99.90;;;;;;5014822;28;20214;-74
2021/12/19 14:04:54;;;;;;;3.63;2.57;;;7.50;99.90;;;;;;5022309;28;20234;-74
2021/12/19 14:07:30;;;;;;;3.00;2.33;;;7.60;99.90;;;;;;5039914;28;20189;-74
2021/12/19 14:10:05;;;;;;;3.13;2.50;;;7.60;99.90;;;;;;5023799;28;20233;-74
2021/12/19 14:12:53;;;;;;;3.67;2.53;;;7.60;99.90;;;;;;5030932;28;20199;-73
2021/12/19 14:15:22;;;;;;;2.80;2.20;;;7.60;99.90;;;;;;5040166;28;20205;-74
2021/12/19 14:17:53;;;;;;;3.30;2.23;;;7.70;99.90;;;;;;5025775;28;20348;-74